Weather at Seoul National University Bundang Hospital Helipad

Public forecast

Using degrees Celsius for public forecast. Weather courtesy of forecast.io.

Closest aviation weather report (METAR) to Seoul National University Bundang Hospital Helipad

Closest report is Seoul Air Base (K-16), 5.6 nm (10.3 km) N. Retrieved 2020/10/27 09:00 UTC (2 hours ago):

RKSM 270900Z 30001KT 6000 HZ SKC 16/09 A3014

Closest aviation forecast (TAF) to Seoul National University Bundang Hospital Helipad

Closest forecast is Seoul Air Base (K-16), 5.6 nm (10.3 km) N. Retrieved 2020/10/27 06:42 UTC (4 hours ago):

TAF RKSM 270500Z 2706/2812 30006KT 8000 HZ SCT030 BECMG 2711/2712 30006KT 4800 BR SCT030 BKN200 BECMG 2714/2715 33006KT 4800 BR SCT015 BKN030 BECMG 2721/2722 33006KT 4800 BR SCT030 BKN200 VIS 9999 NSW AFT 2801 TX20/2706Z TN10/2721Z